الصفحة الرئيسية
METAR-TAF:

METAR-TAF

مطار :

أمستردام, هولندا

مطار سخيبول أمستردام

دائرة عرض: 52-18N, خط طول: 004-46E, ارتفاع: -4 متر

مراقبة الطقس الحالي

تاريخ ووقت الإصدار 26 دقيقة قبل الساعة 17:55UTC
ريح 7 عقدة من الجنوب/الجنوب الشرقي
درجة الحرارة 3°درجة مئوية
الرطوبة 87%
ضغط 1023 hPa
الرؤية 10 كم أو أكثر
الغيوم لا تقل 1500 م ولا وجود لمزنة ركامية السحاب الأسود

METAR: EHAM 181755Z 15007KT CAVOK 03/01 Q1023 NOSIG

زمن: 19:21 (18:21 UTC)

توقعات

تاريخ ووقت الإصدار 1ساعة و 23 دقيقة قبل الساعة 16:58UTC
التوقعات صالحة من18 الساعة 18 UTC إلى 19 الساعة 24 UTC
ريح 6 عقدة من الجنوب
الرؤية 10 كم أو أكثر
الغيوم لا تقل 1500 م ولا وجود لمزنة ركامية السحاب الأسود
نظرية الاحتمالات 30%
من 19 الساعة 02 UTC إلى 19 الساعة 08 UTC
الرؤية: 5000 متر
غشاء

TAF: EHAM 181658Z 1818/1924 17006KT CAVOK PROB30 1902/1908 5000 BR

أرصاد الطقس والتوقعات من أكثر من 4000 مطار (تقارير الطقس للمطار METAR والتنبؤ بالطقس بالمطارTAF).

المحطات المتاحة هي النقط الصفراء والحمراء على الخريطة.

حرك المؤشر فوق النقطة لمعرفة اسم المحطة.

ثم انقر لمعرفة أرصاد وتوقعات الطقس.

لتغيير الخارطة: اضغط على الأزرار الخضراء مع رمز الصليب الأسود للتكبير. على الزر الأخضر مع شرطة للتصغير، أو على الأسهم الخضراء للخرائط المجاورة.


METAR-TAF: